Time;durP1;ratioP1;P1;durP2;ratioP2;P2;SDS_P1;SDS_P2;PMS_P1;PMS_P2;Temp;Humidity;BMP_temperature;BMP_pressure;BME280_temperature;BME280_humidity;BME280_pressure;Samples;Min_cycle;Max_cycle;Signal;HPM_P1;HPM_P2
2022/09/10 00:01:01;;;;;;;;;;;22.30;29.40;;;;;;6158317;23;19917;-82
2022/09/10 00:03:28;;;;;;;;;;;22.30;29.30;;;;;;6158045;23;19921;-81
2022/09/10 00:05:55;;;;;;;;;;;22.30;29.30;;;;;;6159579;23;19944;-80
2022/09/10 00:08:21;;;;;;;;;;;22.30;29.40;;;;;;6161087;23;19927;-80
2022/09/10 00:10:50;;;;;;;;;;;22.20;29.60;;;;;;6168854;23;19923;-81
2022/09/10 00:13:18;;;;;;;;;;;22.10;30.00;;;;;;6159750;23;19944;-81
2022/09/10 00:15:49;;;;;;;;;;;22.10;30.00;;;;;;6161860;23;19936;-82
2022/09/10 00:18:17;;;;;;;;;;;22.00;30.00;;;;;;6155691;23;20313;-81
2022/09/10 00:20:48;;;;;;;;;;;22.00;30.00;;;;;;6164124;23;19928;-81
2022/09/10 00:23:15;;;;;;;;;;;21.90;30.40;;;;;;6162220;23;19948;-81
2022/09/10 00:25:45;;;;;;;;;;;21.90;30.80;;;;;;6163830;23;20338;-81
2022/09/10 00:28:12;;;;;;;;;;;21.80;30.80;;;;;;6161142;23;19983;-79
2022/09/10 00:30:40;;;;;;;;;;;21.80;31.30;;;;;;6163237;23;19900;-82
2022/09/10 00:33:07;;;;;;;;;;;21.70;31.00;;;;;;6167151;23;19940;-82
2022/09/10 00:35:34;;;;;;;;;;;21.70;31.10;;;;;;6163090;23;20337;-81
2022/09/10 00:38:01;;;;;;;;;;;21.70;31.00;;;;;;6166757;23;19963;-80
2022/09/10 00:40:28;;;;;;;;;;;21.70;31.00;;;;;;6159843;23;20306;-79
2022/09/10 00:42:55;;;;;;;;;;;21.70;31.30;;;;;;6154676;23;20349;-80
2022/09/10 00:45:25;;;;;;;;;;;21.70;31.20;;;;;;6156586;23;19920;-81
2022/09/10 00:47:55;;;;;;;;;;;21.70;31.50;;;;;;6153882;23;19926;-81
2022/09/10 00:50:24;;;;;;;;;;;21.60;31.60;;;;;;6159180;23;20326;-80
2022/09/10 00:52:53;;;;;;;;;;;21.60;31.30;;;;;;6158276;23;19924;-80
2022/09/10 00:55:21;;;;;;;;;;;21.60;31.20;;;;;;6167262;23;19917;-81
2022/09/10 00:57:49;;;;;;;;;;;21.70;31.30;;;;;;6158706;23;19944;-79
2022/09/10 01:00:16;;;;;;;;;;;21.70;31.40;;;;;;6159364;23;20330;-80
2022/09/10 01:02:43;;;;;;;;;;;21.60;31.50;;;;;;6157080;23;19947;-79
2022/09/10 01:05:10;;;;;;;;;;;21.60;31.30;;;;;;6159189;23;19916;-81
2022/09/10 01:07:37;;;;;;;;;;;21.60;31.40;;;;;;6157734;23;20334;-80
2022/09/10 01:10:10;;;;;;;;;;;21.60;31.40;;;;;;6158151;23;19940;-81
2022/09/10 01:12:54;;;;;;;;;;;21.60;31.70;;;;;;6155180;23;19995;-81
2022/09/10 01:15:21;;;;;;;;;;;21.60;31.70;;;;;;6161501;23;19979;-81
2022/09/10 01:17:55;;;;;;;;;;;21.60;31.90;;;;;;6160534;23;19916;-82
2022/09/10 01:20:46;;;;;;;;;;;21.50;32.40;;;;;;6153867;23;19948;-79
2022/09/10 01:23:19;;;;;;;;;;;21.40;32.10;;;;;;6158920;23;19916;-81
2022/09/10 01:26:05;;;;;;;;;;;21.50;32.50;;;;;;6167205;23;19920;-81
2022/09/10 01:28:31;;;;;;;;;;;21.50;32.10;;;;;;6159695;23;19930;-82
2022/09/10 01:31:03;;;;;;;;;;;21.50;32.10;;;;;;6161305;23;20278;-81
2022/09/10 01:33:36;;;;;;;;;;;21.60;32.50;;;;;;6161780;23;19941;-82
2022/09/10 01:36:08;;;;;;;;;;;21.50;32.30;;;;;;6162721;23;20322;-81
2022/09/10 01:38:37;;;;;;;;;;;21.60;31.90;;;;;;6161439;23;19916;-82
2022/09/10 01:41:04;;;;;;;;;;;21.70;32.10;;;;;;6157494;23;19967;-80
2022/09/10 01:43:32;;;;;;;;;;;21.70;32.10;;;;;;6158206;23;19933;-79
2022/09/10 01:46:07;;;;;;;;;;;21.70;31.80;;;;;;6170318;23;19912;-81
2022/09/10 01:48:54;;;;;;;;;;;21.70;32.10;;;;;;6163843;23;19927;-81
2022/09/10 01:51:29;;;;;;;;;;;21.80;32.10;;;;;;6154544;23;19921;-81
2022/09/10 01:53:59;;;;;;;;;;;21.80;31.50;;;;;;6160647;23;19955;-81
2022/09/10 01:56:25;;;;;;;;;;;21.90;31.40;;;;;;6160710;23;20390;-82
2022/09/10 01:58:56;;;;;;;;;;;22.00;32.90;;;;;;6170820;23;19932;-82
2022/09/10 02:01:35;;;;;;;;;;;22.00;32.50;;;;;;6165145;23;19928;-80
2022/09/10 02:04:03;;;;;;;;;;;22.00;34.60;;;;;;6173019;23;19916;-83
2022/09/10 02:06:33;;;;;;;;;;;22.00;35.30;;;;;;6165519;23;19916;-83
2022/09/10 02:09:00;;;;;;;;;;;22.00;38.20;;;;;;6162473;23;19971;-81
2022/09/10 02:11:27;;;;;;;;;;;21.90;43.80;;;;;;6168063;23;20322;-82
2022/09/10 02:13:54;;;;;;;;;;;21.70;45.40;;;;;;6164775;23;19940;-81
2022/09/10 02:16:21;;;;;;;;;;;21.60;48.00;;;;;;6159284;23;19934;-80
2022/09/10 02:18:48;;;;;;;;;;;21.50;48.50;;;;;;6169459;23;20334;-82
2022/09/10 02:21:15;;;;;;;;;;;21.40;49.50;;;;;;6159580;23;20270;-80
2022/09/10 02:23:49;;;;;;;;;;;21.20;52.20;;;;;;6165528;23;19936;-81
2022/09/10 02:26:15;;;;;;;;;;;21.10;53.40;;;;;;6152473;23;19991;-80
2022/09/10 02:28:42;;;;;;;;;;;20.90;55.30;;;;;;6156514;23;19951;-80
2022/09/10 02:31:09;;;;;;;;;;;20.80;51.40;;;;;;6161866;23;19924;-82
2022/09/10 02:33:36;;;;;;;;;;;20.70;48.20;;;;;;6164173;23;19921;-80
2022/09/10 02:36:03;;;;;;;;;;;20.40;49.00;;;;;;6159508;23;19944;-81
2022/09/10 02:38:30;;;;;;;;;;;20.10;48.60;;;;;;6163741;23;20356;-83
2022/09/10 02:40:58;;;;;;;;;;;19.70;50.80;;;;;;6154050;23;19987;-81
2022/09/10 02:43:27;;;;;;;;;;;19.70;51.10;;;;;;6155515;23;20341;-80
2022/09/10 02:45:57;;;;;;;;;;;19.60;49.80;;;;;;6163986;23;19932;-80
2022/09/10 02:48:29;;;;;;;;;;;19.50;50.60;;;;;;6162353;23;19916;-82
2022/09/10 02:50:56;;;;;;;;;;;19.40;50.30;;;;;;6159332;23;19917;-82
2022/09/10 02:53:24;;;;;;;;;;;19.30;51.30;;;;;;6157968;23;19955;-81
2022/09/10 02:55:51;;;;;;;;;;;19.30;51.00;;;;;;6157364;23;19956;-82
2022/09/10 02:58:18;;;;;;;;;;;19.30;51.70;;;;;;6160933;23;19947;-83
2022/09/10 03:00:45;;;;;;;;;;;19.10;52.80;;;;;;6159144;23;19917;-80
2022/09/10 03:03:12;;;;;;;;;;;18.90;53.10;;;;;;6170672;23;19916;-81
2022/09/10 03:05:40;;;;;;;;;;;18.70;54.40;;;;;;6168248;23;19920;-82
2022/09/10 03:08:08;;;;;;;;;;;18.60;54.80;;;;;;6163210;23;19916;-80
2022/09/10 03:10:35;;;;;;;;;;;18.60;55.10;;;;;;6168321;23;19901;-82
2022/09/10 03:13:02;;;;;;;;;;;18.40;58.50;;;;;;6163051;23;19944;-80
2022/09/10 03:15:28;;;;;;;;;;;18.30;58.60;;;;;;6170101;23;20242;-82
2022/09/10 03:17:55;;;;;;;;;;;18.30;60.20;;;;;;6171900;23;19931;-82
2022/09/10 03:20:22;;;;;;;;;;;18.20;60.20;;;;;;6156296;23;20334;-82
2022/09/10 03:22:50;;;;;;;;;;;18.10;62.20;;;;;;6161512;23;20349;-82
2022/09/10 03:25:21;;;;;;;;;;;17.90;63.70;;;;;;6168879;23;19917;-80
2022/09/10 03:27:48;;;;;;;;;;;17.70;63.30;;;;;;6158488;23;19917;-80
2022/09/10 03:30:15;;;;;;;;;;;17.60;62.80;;;;;;6160003;23;19929;-80
2022/09/10 03:32:42;;;;;;;;;;;17.60;63.30;;;;;;6158141;23;19955;-80
2022/09/10 03:35:09;;;;;;;;;;;17.60;64.80;;;;;;6161612;23;19936;-81
2022/09/10 03:37:35;;;;;;;;;;;17.50;65.70;;;;;;6163305;23;19921;-83
2022/09/10 03:40:03;;;;;;;;;;;17.40;65.70;;;;;;6161275;23;19958;-81
2022/09/10 03:42:30;;;;;;;;;;;17.30;65.50;;;;;;6162229;23;19923;-80
2022/09/10 03:44:57;;;;;;;;;;;17.30;65.50;;;;;;6158957;23;20334;-82
2022/09/10 03:47:24;;;;;;;;;;;17.20;66.50;;;;;;6161593;23;19944;-81
2022/09/10 03:49:50;;;;;;;;;;;17.10;66.30;;;;;;6160839;23;19936;-80
2022/09/10 03:52:17;;;;;;;;;;;16.90;66.70;;;;;;6168191;23;19923;-82
2022/09/10 03:54:48;;;;;;;;;;;16.90;66.90;;;;;;6160449;23;19936;-82
2022/09/10 03:57:15;;;;;;;;;;;16.90;69.80;;;;;;6152953;23;19944;-80
2022/09/10 03:59:42;;;;;;;;;;;16.90;70.30;;;;;;6161660;23;19956;-82
2022/09/10 04:02:09;;;;;;;;;;;16.80;71.20;;;;;;6158073;23;19944;-81
2022/09/10 04:04:36;;;;;;;;;;;16.80;70.50;;;;;;6165684;23;19960;-80
2022/09/10 04:07:03;;;;;;;;;;;16.70;71.50;;;;;;6158327;23;20253;-80
2022/09/10 04:09:31;;;;;;;;;;;16.60;71.30;;;;;;6161949;23;19932;-80
2022/09/10 04:11:58;;;;;;;;;;;16.50;70.90;;;;;;6160684;23;19983;-81
2022/09/10 04:14:25;;;;;;;;;;;16.40;70.70;;;;;;6158407;23;19916;-80
2022/09/10 04:16:52;;;;;;;;;;;16.40;70.30;;;;;;6158070;23;19991;-81
2022/09/10 04:19:19;;;;;;;;;;;16.40;70.70;;;;;;6167304;23;19916;-80
2022/09/10 04:21:47;;;;;;;;;;;16.10;71.30;;;;;;6163690;23;19917;-80
2022/09/10 04:24:13;;;;;;;;;;;16.10;71.80;;;;;;6169153;23;20313;-80
2022/09/10 04:26:40;;;;;;;;;;;16.10;71.80;;;;;;6161278;23;19924;-82
2022/09/10 04:29:07;;;;;;;;;;;16.00;71.20;;;;;;6160447;23;19983;-79
2022/09/10 04:31:34;;;;;;;;;;;16.10;71.80;;;;;;6157468;23;19916;-80
2022/09/10 04:34:00;;;;;;;;;;;16.00;71.70;;;;;;6157894;23;19916;-79
2022/09/10 04:36:28;;;;;;;;;;;16.00;71.40;;;;;;6155276;23;19926;-80
2022/09/10 04:38:55;;;;;;;;;;;15.90;71.10;;;;;;6154521;23;19948;-80
2022/09/10 04:41:21;;;;;;;;;;;15.90;70.80;;;;;;6158915;23;19940;-79
2022/09/10 04:43:48;;;;;;;;;;;15.90;71.00;;;;;;6153332;23;19920;-80
2022/09/10 04:46:16;;;;;;;;;;;15.90;72.30;;;;;;6154578;23;19916;-79
2022/09/10 04:48:43;;;;;;;;;;;15.90;72.40;;;;;;6158457;23;19999;-80
2022/09/10 04:51:12;;;;;;;;;;;15.90;72.20;;;;;;6158908;23;20230;-80
2022/09/10 04:53:43;;;;;;;;;;;15.80;72.10;;;;;;6162927;23;19941;-80
2022/09/10 04:56:10;;;;;;;;;;;15.80;71.60;;;;;;6158851;23;19940;-80
2022/09/10 04:58:37;;;;;;;;;;;15.80;71.90;;;;;;6159858;23;19939;-81
2022/09/10 05:01:05;;;;;;;;;;;15.80;73.40;;;;;;6158839;23;19924;-81
2022/09/10 05:03:32;;;;;;;;;;;15.60;74.30;;;;;;6158335;23;20257;-80
2022/09/10 05:05:59;;;;;;;;;;;15.60;74.50;;;;;;6155067;23;20316;-81
2022/09/10 05:08:26;;;;;;;;;;;15.50;74.70;;;;;;6157725;23;19947;-80
2022/09/10 05:10:52;;;;;;;;;;;15.40;75.10;;;;;;6162261;23;20015;-79
2022/09/10 05:13:19;;;;;;;;;;;15.30;76.60;;;;;;6154710;23;20384;-79
2022/09/10 05:15:46;;;;;;;;;;;15.30;77.20;;;;;;6161491;23;19960;-79
2022/09/10 05:18:13;;;;;;;;;;;15.20;77.00;;;;;;6154677;23;19944;-80
2022/09/10 05:20:41;;;;;;;;;;;15.20;77.30;;;;;;6158012;23;20330;-81
2022/09/10 05:23:08;;;;;;;;;;;15.10;78.40;;;;;;6165004;23;19932;-79
2022/09/10 05:25:35;;;;;;;;;;;15.10;78.40;;;;;;6170573;23;19917;-81
2022/09/10 05:28:04;;;;;;;;;;;15.00;78.20;;;;;;6157323;23;19963;-80
2022/09/10 05:30:31;;;;;;;;;;;14.80;78.10;;;;;;6168584;23;19940;-80
2022/09/10 05:32:59;;;;;;;;;;;14.70;78.00;;;;;;6153791;23;19924;-80
2022/09/10 05:35:27;;;;;;;;;;;14.60;78.20;;;;;;6159555;23;20261;-80
2022/09/10 05:37:57;;;;;;;;;;;14.60;78.70;;;;;;6157164;23;19956;-82
2022/09/10 05:40:24;;;;;;;;;;;14.60;78.10;;;;;;6155147;23;19923;-79
2022/09/10 05:42:52;;;;;;;;;;;14.60;80.90;;;;;;6163404;23;19940;-80
2022/09/10 05:45:19;;;;;;;;;;;14.50;80.20;;;;;;6161520;23;20326;-81
2022/09/10 05:47:46;;;;;;;;;;;14.60;79.90;;;;;;6155738;23;19921;-80
2022/09/10 05:50:13;;;;;;;;;;;14.70;79.60;;;;;;6156265;23;19987;-80
2022/09/10 05:52:40;;;;;;;;;;;14.70;80.80;;;;;;6159253;23;20348;-81
2022/09/10 05:55:07;;;;;;;;;;;14.80;80.90;;;;;;6167947;23;20020;-80
2022/09/10 05:57:34;;;;;;;;;;;14.80;82.90;;;;;;6155047;23;19995;-80
2022/09/10 06:00:02;;;;;;;;;;;14.80;82.50;;;;;;6158299;23;19920;-79
2022/09/10 06:02:29;;;;;;;;;;;14.70;84.10;;;;;;6167557;23;20004;-82
2022/09/10 06:04:56;;;;;;;;;;;14.70;83.10;;;;;;6158315;23;19929;-81
2022/09/10 06:07:24;;;;;;;;;;;14.80;83.10;;;;;;6173812;23;19932;-82
2022/09/10 06:09:50;;;;;;;;;;;14.80;82.80;;;;;;6169270;23;20330;-80
2022/09/10 06:12:17;;;;;;;;;;;14.90;83.90;;;;;;6159200;23;19961;-80
2022/09/10 06:14:44;;;;;;;;;;;15.10;83.80;;;;;;6154845;23;19916;-80
2022/09/10 06:17:18;;;;;;;;;;;15.10;85.50;;;;;;6161274;23;19997;-80
2022/09/10 06:19:45;;;;;;;;;;;15.20;85.40;;;;;;6154189;23;19917;-80
2022/09/10 06:22:12;;;;;;;;;;;15.30;84.50;;;;;;6159779;23;19964;-79
2022/09/10 06:24:39;;;;;;;;;;;15.40;84.20;;;;;;6147953;23;19936;-80
2022/09/10 06:27:08;;;;;;;;;;;15.50;82.90;;;;;;6153693;23;19921;-80
2022/09/10 06:29:35;;;;;;;;;;;15.50;82.30;;;;;;6156711;23;19931;-82
2022/09/10 06:32:02;;;;;;;;;;;15.60;82.50;;;;;;6160373;23;19920;-83
2022/09/10 06:34:29;;;;;;;;;;;15.80;81.80;;;;;;6163902;23;19916;-82
2022/09/10 06:36:57;;;;;;;;;;;15.80;82.20;;;;;;6163580;23;19940;-79
2022/09/10 06:39:23;;;;;;;;;;;16.00;81.80;;;;;;6155649;23;19922;-80
2022/09/10 06:41:52;;;;;;;;;;;16.10;81.00;;;;;;6156994;23;20317;-81
2022/09/10 06:44:21;;;;;;;;;;;16.20;81.20;;;;;;6159544;23;19953;-81
2022/09/10 06:46:47;;;;;;;;;;;16.40;82.20;;;;;;6154321;23;20425;-81
2022/09/10 06:49:35;;;;;;;;;;;16.70;80.60;;;;;;6153620;23;19917;-80
2022/09/10 06:52:02;;;;;;;;;;;16.80;80.60;;;;;;6154812;23;19992;-81
2022/09/10 06:54:29;;;;;;;;;;;17.00;81.40;;;;;;6161883;23;19940;-83
2022/09/10 06:56:56;;;;;;;;;;;17.30;77.70;;;;;;6154825;23;19920;-81
2022/09/10 06:59:23;;;;;;;;;;;17.50;73.70;;;;;;6154094;23;19920;-80
2022/09/10 07:01:50;;;;;;;;;;;17.70;73.40;;;;;;6155280;23;19923;-81
2022/09/10 07:04:16;;;;;;;;;;;17.90;74.50;;;;;;6155475;23;19951;-83
2022/09/10 07:06:44;;;;;;;;;;;18.10;73.40;;;;;;6156554;23;20358;-80
2022/09/10 07:09:11;;;;;;;;;;;18.30;70.30;;;;;;6154425;23;20263;-83
2022/09/10 07:11:38;;;;;;;;;;;18.40;69.30;;;;;;6153822;23;19917;-81
2022/09/10 07:14:13;;;;;;;;;;;18.40;68.10;;;;;;6159440;23;20231;-81
2022/09/10 07:16:40;;;;;;;;;;;18.50;65.50;;;;;;6155091;23;19943;-82
2022/09/10 07:19:09;;;;;;;;;;;18.80;64.40;;;;;;6156497;23;19989;-80
2022/09/10 07:21:36;;;;;;;;;;;19.20;60.30;;;;;;6159434;23;19944;-81
2022/09/10 07:24:04;;;;;;;;;;;19.40;56.80;;;;;;6159011;23;19995;-82
2022/09/10 07:26:31;;;;;;;;;;;19.70;55.60;;;;;;6158618;23;19916;-82
2022/09/10 07:28:58;;;;;;;;;;;19.80;51.60;;;;;;6158930;23;19944;-81
2022/09/10 07:31:27;;;;;;;;;;;19.90;53.20;;;;;;6157032;23;19924;-81
2022/09/10 07:33:54;;;;;;;;;;;20.10;53.90;;;;;;6156134;23;20310;-80
2022/09/10 07:36:21;;;;;;;;;;;20.30;53.10;;;;;;6157656;23;19991;-81
2022/09/10 07:38:50;;;;;;;;;;;20.70;55.40;;;;;;6158985;23;19927;-81
2022/09/10 07:41:17;;;;;;;;;;;21.00;53.50;;;;;;6158407;23;19996;-82
2022/09/10 07:43:44;;;;;;;;;;;21.30;53.60;;;;;;6160164;23;19951;-83
2022/09/10 07:46:20;;;;;;;;;;;21.40;52.10;;;;;;6160056;23;19936;-81
2022/09/10 07:48:47;;;;;;;;;;;21.70;51.60;;;;;;6163703;23;20527;-82
2022/09/10 07:51:18;;;;;;;;;;;21.90;53.30;;;;;;6163179;23;19996;-83
2022/09/10 07:53:45;;;;;;;;;;;22.00;51.10;;;;;;6161927;23;20234;-81
2022/09/10 07:56:16;;;;;;;;;;;22.10;50.40;;;;;;6165546;23;19917;-82
2022/09/10 07:58:43;;;;;;;;;;;22.30;49.90;;;;;;6162917;23;20235;-80
2022/09/10 08:01:11;;;;;;;;;;;22.40;49.20;;;;;;6160484;23;19960;-81
2022/09/10 08:03:38;;;;;;;;;;;22.60;48.20;;;;;;6159989;23;19920;-81
2022/09/10 08:06:06;;;;;;;;;;;22.70;49.70;;;;;;6160427;23;19923;-82
2022/09/10 08:08:34;;;;;;;;;;;22.80;48.40;;;;;;6169098;23;19927;-81
2022/09/10 08:11:06;;;;;;;;;;;22.80;47.80;;;;;;6163157;23;19952;-80
2022/09/10 08:13:39;;;;;;;;;;;23.10;49.70;;;;;;6163032;23;19950;-81
2022/09/10 08:16:09;;;;;;;;;;;23.20;50.50;;;;;;6165501;23;19932;-82
2022/09/10 08:18:36;;;;;;;;;;;23.20;51.50;;;;;;6157415;23;20356;-80
2022/09/10 08:21:04;;;;;;;;;;;23.40;51.50;;;;;;6159724;23;20344;-81
2022/09/10 08:23:31;;;;;;;;;;;23.20;51.60;;;;;;6160291;23;19947;-81
2022/09/10 08:25:58;;;;;;;;;;;23.40;52.00;;;;;;6158905;23;20305;-82
2022/09/10 08:28:26;;;;;;;;;;;23.40;51.00;;;;;;6162436;23;20325;-81
2022/09/10 08:31:03;;;;;;;;;;;23.50;52.90;;;;;;6161929;23;20342;-81
2022/09/10 08:33:30;;;;;;;;;;;23.80;54.50;;;;;;6162622;23;19967;-83
2022/09/10 08:35:58;;;;;;;;;;;23.80;54.00;;;;;;6159947;23;19920;-81
2022/09/10 08:38:29;;;;;;;;;;;24.00;55.40;;;;;;6162203;23;19924;-82
2022/09/10 08:40:58;;;;;;;;;;;24.10;54.80;;;;;;6158312;23;19943;-81
2022/09/10 08:43:37;;;;;;;;;;;24.30;54.80;;;;;;6162315;23;19916;-81
2022/09/10 08:46:09;;;;;;;;;;;24.20;53.20;;;;;;6163807;23;19923;-82
2022/09/10 08:48:36;;;;;;;;;;;24.20;53.80;;;;;;6167795;23;19964;-81
2022/09/10 08:51:09;;;;;;;;;;;24.20;54.90;;;;;;6164677;23;20253;-82
2022/09/10 08:53:42;;;;;;;;;;;24.20;55.90;;;;;;6162886;23;20203;-81
2022/09/10 08:56:16;;;;;;;;;;;24.20;52.70;;;;;;6160181;23;19963;-81
2022/09/10 08:58:45;;;;;;;;;;;24.20;53.90;;;;;;6163279;23;19927;-82
2022/09/10 09:01:33;;;;;;;;;;;24.30;54.20;;;;;;6161349;23;20252;-82
2022/09/10 09:04:03;;;;;;;;;;;24.20;54.90;;;;;;6163723;23;19920;-81
2022/09/10 09:06:38;;;;;;;;;;;24.40;53.70;;;;;;6155071;23;19917;-81
2022/09/10 09:09:05;;;;;;;;;;;24.50;53.70;;;;;;6167311;23;19939;-81
2022/09/10 09:11:52;;;;;;;;;;;24.70;53.10;;;;;;6154477;23;19923;-81
2022/09/10 09:14:21;;;;;;;;;;;24.70;53.70;;;;;;6161336;23;19970;-81
2022/09/10 09:16:58;;;;;;;;;;;24.80;53.60;;;;;;6165646;23;20308;-82
2022/09/10 09:19:32;;;;;;;;;;;24.90;52.60;;;;;;6156637;23;19947;-81
2022/09/10 09:22:05;;;;;;;;;;;24.90;52.40;;;;;;6170127;23;19928;-81
2022/09/10 09:24:50;;;;;;;;;;;24.90;53.40;;;;;;6162003;23;19947;-81
2022/09/10 09:27:18;;;;;;;;;;;24.90;53.10;;;;;;6159857;23;19939;-82
2022/09/10 09:30:00;;;;;;;;;;;25.00;54.60;;;;;;6164196;23;19940;-81
2022/09/10 09:32:29;;;;;;;;;;;24.90;55.70;;;;;;6170190;23;20285;-80
2022/09/10 09:34:58;;;;;;;;;;;25.10;55.90;;;;;;6161072;23;19921;-82
2022/09/10 09:37:31;;;;;;;;;;;25.00;55.80;;;;;;6158038;23;20389;-81
2022/09/10 09:40:11;;;;;;;;;;;24.60;55.90;;;;;;6161018;23;19921;-81
2022/09/10 09:42:56;;;;;;;;;;;24.50;56.80;;;;;;6158144;23;20353;-82
2022/09/10 09:45:23;;;;;;;;;;;24.40;57.60;;;;;;6163118;23;19926;-82
2022/09/10 09:47:53;;;;;;;;;;;24.80;57.60;;;;;;6161994;23;19917;-82
2022/09/10 09:50:20;;;;;;;;;;;25.10;55.80;;;;;;6161035;23;19972;-81
2022/09/10 09:52:53;;;;;;;;;;;25.30;56.50;;;;;;6160264;23;19939;-82
2022/09/10 09:55:46;;;;;;;;;;;25.20;55.00;;;;;;6154088;23;19917;-82
2022/09/10 09:58:28;;;;;;;;;;;25.00;57.10;;;;;;6155787;23;19927;-84
2022/09/10 10:01:04;;;;;;;;;;;25.20;56.10;;;;;;6160218;23;19987;-81
2022/09/10 10:03:34;;;;;;;;;;;25.40;56.20;;;;;;6155976;23;19987;-83
2022/09/10 10:06:07;;;;;;;;;;;25.40;55.90;;;;;;6164478;23;19947;-81
2022/09/10 10:08:41;;;;;;;;;;;25.50;55.20;;;;;;6159201;23;20330;-82
2022/09/10 10:11:10;;;;;;;;;;;25.70;54.30;;;;;;6154022;23;19928;-81
2022/09/10 10:13:38;;;;;;;;;;;25.50;53.50;;;;;;6154142;23;20011;-82
2022/09/10 10:16:15;;;;;;;;;;;25.30;54.70;;;;;;6153945;23;20306;-82
2022/09/10 10:18:42;;;;;;;;;;;25.20;54.50;;;;;;6166443;23;19900;-83
2022/09/10 10:21:28;;;;;;;;;;;25.40;54.30;;;;;;6154463;23;19995;-82
2022/09/10 10:23:54;;;;;;;;;;;25.70;52.40;;;;;;6166219;23;20293;-82
2022/09/10 10:26:44;;;;;;;;;;;25.80;52.30;;;;;;6153793;23;19917;-83
2022/09/10 10:29:18;;;;;;;;;;;25.90;51.30;;;;;;6162586;23;19968;-82
2022/09/10 10:31:46;;;;;;;;;;;25.70;53.60;;;;;;6158670;23;19955;-81
2022/09/10 10:34:40;;;;;;;;;;;25.80;52.80;;;;;;6156979;23;19915;-81
2022/09/10 10:37:15;;;;;;;;;;;25.70;52.10;;;;;;6157043;23;20278;-82
2022/09/10 10:40:01;;;;;;;;;;;25.90;52.60;;;;;;6154193;23;19940;-82
2022/09/10 10:42:54;;;;;;;;;;;26.00;52.00;;;;;;6165574;23;19921;-82
2022/09/10 10:45:30;;;;;;;;;;;26.00;52.90;;;;;;6139635;23;19923;-82
2022/09/10 10:48:15;;;;;;;;;;;26.00;51.20;;;;;;6154392;23;19920;-82
2022/09/10 10:50:54;;;;;;;;;;;25.70;49.80;;;;;;6153817;23;19916;-82
2022/09/10 10:53:21;;;;;;;;;;;26.00;50.40;;;;;;6157253;23;19900;-82
2022/09/10 10:55:54;;;;;;;;;;;25.60;51.30;;;;;;6158511;23;19925;-82
2022/09/10 10:58:20;;;;;;;;;;;25.50;51.40;;;;;;6152668;23;19940;-83
2022/09/10 11:00:56;;;;;;;;;;;25.80;52.40;;;;;;6154826;23;19992;-83
2022/09/10 11:03:29;;;;;;;;;;;26.20;51.80;;;;;;6162032;23;19944;-83
2022/09/10 11:06:16;;;;;;;;;;;26.00;51.30;;;;;;6153405;23;19917;-82
2022/09/10 11:08:54;;;;;;;;;;;26.00;51.20;;;;;;6158127;23;20333;-80
2022/09/10 11:11:40;;;;;;;;;;;26.20;51.10;;;;;;6158149;23;19900;-82
2022/09/10 11:14:09;;;;;;;;;;;25.90;52.20;;;;;;6155000;23;19940;-82
2022/09/10 11:16:40;;;;;;;;;;;26.00;51.50;;;;;;6160595;23;19979;-82
2022/09/10 11:19:14;;;;;;;;;;;26.00;50.90;;;;;;6158134;23;19924;-82
2022/09/10 11:21:48;;;;;;;;;;;26.30;49.90;;;;;;6152321;23;19923;-82
2022/09/10 11:24:24;;;;;;;;;;;26.60;48.90;;;;;;6153157;23;19933;-82
2022/09/10 11:26:57;;;;;;;;;;;26.70;47.90;;;;;;6145820;23;19944;-82
2022/09/10 11:29:41;;;;;;;;;;;26.70;48.40;;;;;;6159466;23;20258;-83
2022/09/10 11:32:27;;;;;;;;;;;27.00;48.10;;;;;;6154714;23;19944;-82
2022/09/10 11:35:08;;;;;;;;;;;26.30;50.10;;;;;;6154540;23;19998;-81
2022/09/10 11:37:39;;;;;;;;;;;26.40;50.80;;;;;;6160689;23;20304;-82
2022/09/10 11:40:12;;;;;;;;;;;26.80;48.90;;;;;;6156355;23;19940;-82
2022/09/10 11:42:40;;;;;;;;;;;26.80;47.80;;;;;;6156387;23;19951;-82
2022/09/10 11:45:09;;;;;;;;;;;27.10;47.70;;;;;;6156299;23;20286;-82
2022/09/10 11:47:43;;;;;;;0.45;0.20;;;27.10;48.30;;;;;;6159190;23;19924;-82
2022/09/10 11:50:20;;;;;;;;;;;26.70;48.10;;;;;;6157108;23;20017;-83
2022/09/10 11:52:47;;;;;;;;;;;26.80;49.00;;;;;;6160515;23;19991;-83
2022/09/10 11:55:16;;;;;;;;;;;27.00;45.20;;;;;;6161399;23;19974;-82
2022/09/10 11:57:48;;;;;;;;;;;27.40;47.60;;;;;;6166045;23;20290;-83
2022/09/10 12:00:16;;;;;;;0.20;0.20;;;27.40;46.00;;;;;;6150687;23;20283;-80
2022/09/10 12:03:17;;;;;;;1.45;0.32;;;27.10;46.10;;;;;;6157146;23;20063;-82
2022/09/10 12:05:49;;;;;;;0.20;0.20;;;27.00;46.20;;;;;;6158296;23;20450;-82
2022/09/10 12:08:16;;;;;;;0.20;0.20;;;27.10;47.10;;;;;;6156468;23;20032;-82
2022/09/10 12:11:19;;;;;;;0.17;0.17;;;27.60;45.90;;;;;;6154593;23;20029;-82
2022/09/10 12:13:48;;;;;;;0.10;0.10;;;27.80;44.60;;;;;;6156281;23;20041;-81
2022/09/10 12:16:37;;;;;;;0.10;0.10;;;27.90;44.40;;;;;;6154550;23;20017;-82
2022/09/10 12:19:16;;;;;;;0.10;0.10;;;28.10;44.40;;;;;;6157533;23;20017;-82
2022/09/10 12:21:54;;;;;;;0.10;0.10;;;27.60;45.40;;;;;;6160118;23;20370;-82
2022/09/10 12:24:31;;;;;;;0.10;0.10;;;27.60;42.70;;;;;;6156973;23;20080;-81
2022/09/10 12:27:01;;;;;;;0.10;0.10;;;27.20;44.30;;;;;;6157345;23;20025;-82
2022/09/10 12:29:38;;;;;;;0.35;0.10;;;27.60;44.90;;;;;;6159733;23;20036;-82
2022/09/10 12:32:12;;;;;;;;;;;28.00;43.70;;;;;;6156488;23;20021;-81
2022/09/10 12:34:40;;;;;;;0.70;0.40;;;28.20;42.10;;;;;;6157635;23;19920;-82
2022/09/10 12:37:20;;;;;;;0.45;0.20;;;28.30;42.20;;;;;;6157478;23;20029;-81
2022/09/10 12:39:48;;;;;;;0.10;0.10;;;27.90;42.40;;;;;;6157397;23;20026;-82
2022/09/10 12:42:32;;;;;;;0.17;0.17;;;27.90;43.50;;;;;;6156976;23;20021;-82
2022/09/10 12:44:59;;;;;;;0.10;0.10;;;27.80;43.70;;;;;;6161857;23;20061;-80
2022/09/10 12:47:41;;;;;;;0.20;0.10;;;28.10;42.10;;;;;;6158728;23;20045;-81
2022/09/10 12:50:23;;;;;;;0.10;0.10;;;27.90;42.20;;;;;;6156059;23;20022;-82
2022/09/10 12:52:50;;;;;;;0.10;0.10;;;28.20;40.60;;;;;;6156968;23;20025;-81
2022/09/10 12:55:35;;;;;;;0.10;0.10;;;28.20;38.30;;;;;;6159465;23;20026;-82
2022/09/10 12:58:28;;;;;;;0.57;0.10;;;28.60;41.50;;;;;;6155615;23;20029;-81
2022/09/10 13:00:56;;;;;;;0.43;0.20;;;29.00;41.50;;;;;;6152919;23;20374;-82
2022/09/10 13:03:26;;;;;;;0.20;0.10;;;29.10;39.10;;;;;;6156057;23;20413;-82
2022/09/10 13:05:58;;;;;;;0.20;0.10;;;29.20;38.20;;;;;;6157478;23;20990;-81
2022/09/10 13:08:30;;;;;;;0.10;0.05;;;29.20;38.50;;;;;;6155631;23;20461;-82
2022/09/10 13:10:58;;;;;;;0.13;0.10;;;29.60;37.60;;;;;;6152101;23;20398;-82
2022/09/10 13:13:28;;;;;;;0.13;0.10;;;29.50;36.60;;;;;;6157591;23;20404;-81
2022/09/10 13:15:55;;;;;;;0.10;0.00;;;29.00;35.90;;;;;;6156220;23;20454;-81
2022/09/10 13:18:25;;;;;;;0.22;0.08;;;28.50;38.60;;;;;;6158875;23;20369;-82
2022/09/10 13:20:52;;;;;;;0.10;0.10;;;28.30;37.50;;;;;;6157673;23;20134;-82
2022/09/10 13:23:22;;;;;;;0.00;0.00;;;28.00;40.20;;;;;;6161521;23;20021;-82
2022/09/10 13:25:50;;;;;;;0.10;0.10;;;28.00;36.90;;;;;;6155086;23;20025;-82
2022/09/10 13:28:30;;;;;;;;;;;28.50;37.40;;;;;;6159207;23;20354;-82
2022/09/10 13:31:07;;;;;;;;;;;28.80;39.40;;;;;;6158226;23;19971;-82
2022/09/10 13:33:50;;;;;;;;;;;28.30;37.30;;;;;;6157964;23;19984;-82
2022/09/10 13:36:20;;;;;;;;;;;28.10;39.40;;;;;;6157176;23;19916;-82
2022/09/10 13:38:53;;;;;;;;;;;27.80;38.90;;;;;;6154464;23;19947;-81
2022/09/10 13:41:38;;;;;;;;;;;28.20;39.30;;;;;;6149028;23;19933;-82
2022/09/10 13:44:07;;;;;;;;;;;28.50;37.70;;;;;;6155837;23;19917;-82
2022/09/10 13:46:40;;;;;;;;;;;28.70;38.90;;;;;;6154462;23;19923;-82
2022/09/10 13:49:24;;;;;;;;;;;28.60;38.50;;;;;;6158716;23;19954;-82
2022/09/10 13:51:52;;;;;;;;;;;28.80;37.60;;;;;;6156270;23;19995;-81
2022/09/10 13:54:26;;;;;;;;;;;29.00;35.70;;;;;;6160273;23;19921;-82
2022/09/10 13:56:54;;;;;;;;;;;28.90;37.10;;;;;;6157887;23;19926;-82
2022/09/10 13:59:29;;;;;;;;;;;28.60;40.40;;;;;;6153418;23;19951;-82
2022/09/10 14:01:58;;;;;;;0.08;0.08;;;28.80;39.80;;;;;;6154895;23;20400;-82
2022/09/10 14:04:37;;;;;;;0.10;0.10;;;28.20;41.10;;;;;;6159028;23;20037;-81
2022/09/10 14:07:36;;;;;;;0.28;0.10;;;28.10;40.30;;;;;;6152724;23;20025;-82
2022/09/10 14:10:05;;;;;;;;;;;28.20;40.40;;;;;;6157252;23;20018;-81
2022/09/10 14:12:34;;;;;;;0.20;0.20;;;28.70;39.80;;;;;;6161858;23;19916;-82
2022/09/10 14:15:05;;;;;;;0.10;0.10;;;28.80;39.50;;;;;;6154280;23;20056;-83
2022/09/10 14:17:46;;;;;;;0.10;0.10;;;28.80;40.00;;;;;;6128991;23;20105;-82
2022/09/10 14:20:24;;;;;;;0.10;0.10;;;28.60;40.50;;;;;;6158398;23;20053;-82
2022/09/10 14:23:03;;;;;;;0.10;0.10;;;28.90;41.30;;;;;;6154244;23;20100;-83
2022/09/10 14:25:35;;;;;;;0.10;0.10;;;28.40;40.70;;;;;;6158006;23;20502;-82